createdAt,value
2018-10-19T00:01:18.653Z,22.37
2018-10-19T00:03:47.149Z,21.23
2018-10-19T00:06:15.697Z,24.77
2018-10-19T00:08:44.319Z,25.93
2018-10-19T00:11:13.009Z,25.57
2018-10-19T00:13:41.552Z,28.60
2018-10-19T00:16:10.026Z,26.43
2018-10-19T00:18:39.582Z,20.67
2018-10-19T00:21:08.181Z,25.37
2018-10-19T00:23:36.990Z,22.00
2018-10-19T00:26:06.013Z,22.17
2018-10-19T00:28:34.691Z,22.50
2018-10-19T00:31:03.243Z,20.53
2018-10-19T00:33:31.941Z,23.03
2018-10-19T00:36:00.501Z,22.10
2018-10-19T00:38:29.181Z,23.07
2018-10-19T00:40:57.673Z,21.87
2018-10-19T00:43:26.611Z,22.47
2018-10-19T00:45:55.226Z,21.93
2018-10-19T00:48:23.734Z,23.10
2018-10-19T00:50:53.029Z,25.17
2018-10-19T00:53:21.739Z,24.40
2018-10-19T00:55:50.276Z,22.80
2018-10-19T00:58:19.337Z,21.63
2018-10-19T01:00:47.977Z,20.70
2018-10-19T01:03:16.560Z,21.50
2018-10-19T01:05:45.024Z,22.50
2018-10-19T01:08:13.907Z,22.47
2018-10-19T01:10:42.457Z,23.60
2018-10-19T01:13:11.437Z,21.30
2018-10-19T01:15:40.074Z,25.73
2018-10-19T01:18:16.074Z,21.17
2018-10-19T01:20:44.785Z,19.57
2018-10-19T01:23:13.335Z,21.17
2018-10-19T01:25:42.821Z,21.50
2018-10-19T01:28:15.527Z,20.63
2018-10-19T01:30:44.146Z,20.30
2018-10-19T01:33:13.374Z,21.97
2018-10-19T01:35:42.034Z,19.20
2018-10-19T01:38:10.513Z,53.20
2018-10-19T01:40:39.064Z,36.23
2018-10-19T01:43:07.560Z,42.93
2018-10-19T01:45:36.253Z,21.07
2018-10-19T01:48:04.778Z,43.07
2018-10-19T01:50:33.941Z,21.27
2018-10-19T01:53:02.570Z,44.27
2018-10-19T01:55:30.980Z,21.70
2018-10-19T01:57:59.605Z,19.37
2018-10-19T02:00:28.669Z,19.37
2018-10-19T02:02:57.243Z,18.40
2018-10-19T02:05:25.692Z,18.30
2018-10-19T02:07:54.290Z,20.23
2018-10-19T02:10:22.866Z,17.90
2018-10-19T02:12:51.472Z,16.50
2018-10-19T02:15:20.651Z,23.67
2018-10-19T02:17:49.152Z,17.87
2018-10-19T02:20:17.807Z,18.53
2018-10-19T02:22:46.468Z,17.13
2018-10-19T02:25:15.625Z,19.03
2018-10-19T02:27:44.420Z,17.70
2018-10-19T02:30:12.911Z,19.67
2018-10-19T02:32:41.509Z,15.97
2018-10-19T02:35:10.196Z,22.57
2018-10-19T02:37:38.680Z,16.00
2018-10-19T02:40:09.092Z,18.20
2018-10-19T02:42:38.899Z,18.27
2018-10-19T02:45:08.465Z,21.03
2018-10-19T02:47:37.146Z,17.03
2018-10-19T02:50:06.698Z,21.13
2018-10-19T02:52:35.256Z,17.40
2018-10-19T02:55:04.280Z,19.00
2018-10-19T02:57:33.516Z,19.37
2018-10-19T03:00:02.060Z,21.57
2018-10-19T03:02:31.000Z,20.70
2018-10-19T03:04:59.528Z,22.47
2018-10-19T03:07:28.049Z,22.30
2018-10-19T03:09:56.701Z,24.20
2018-10-19T03:12:25.365Z,22.60
2018-10-19T03:14:54.629Z,29.07
2018-10-19T03:17:23.316Z,30.37
2018-10-19T03:19:52.033Z,27.23
2018-10-19T03:22:20.604Z,21.60
2018-10-19T03:24:49.489Z,24.13
2018-10-19T03:27:18.559Z,20.70
2018-10-19T03:29:47.050Z,21.43
2018-10-19T03:32:15.795Z,21.37
2018-10-19T03:34:44.505Z,22.83
2018-10-19T03:37:14.162Z,25.73
2018-10-19T03:39:42.600Z,22.63
2018-10-19T03:42:11.227Z,21.43
2018-10-19T03:44:39.685Z,25.70
2018-10-19T03:47:08.351Z,22.63
2018-10-19T03:49:36.862Z,21.17
2018-10-19T03:52:05.722Z,23.30
2018-10-19T03:54:34.233Z,23.47
2018-10-19T03:57:02.897Z,21.87
2018-10-19T03:59:32.017Z,23.57
2018-10-19T04:02:00.985Z,22.03
2018-10-19T04:04:29.487Z,22.27
2018-10-19T04:06:58.775Z,26.13
2018-10-19T04:09:27.497Z,23.23
2018-10-19T04:11:55.982Z,23.60
2018-10-19T04:14:24.735Z,23.87
2018-10-19T04:16:53.226Z,25.23
2018-10-19T04:19:21.773Z,29.60
2018-10-19T04:21:50.264Z,33.90
2018-10-19T04:24:18.977Z,29.40
2018-10-19T04:26:47.466Z,26.93
2018-10-19T04:29:16.269Z,25.30
2018-10-19T04:31:45.547Z,32.47
2018-10-19T04:34:14.191Z,27.57
2018-10-19T04:36:42.724Z,32.57
2018-10-19T04:39:11.493Z,28.90
2018-10-19T04:41:39.957Z,30.37
2018-10-19T04:44:09.202Z,32.33
2018-10-19T04:46:38.431Z,29.23
2018-10-19T04:49:06.946Z,29.17
2018-10-19T04:51:36.348Z,28.73
2018-10-19T04:54:05.246Z,24.37
2018-10-19T04:56:33.930Z,28.63
2018-10-19T04:59:02.602Z,26.57
2018-10-19T05:01:31.055Z,28.70
2018-10-19T05:03:59.830Z,25.90
2018-10-19T05:06:28.674Z,28.40
2018-10-19T05:08:58.846Z,28.63
2018-10-19T05:11:27.474Z,25.90
2018-10-19T05:13:56.823Z,27.37
2018-10-19T05:16:25.291Z,25.70
2018-10-19T05:18:53.950Z,31.57
2018-10-19T05:21:22.515Z,26.97
2018-10-19T05:23:51.011Z,22.63
2018-10-19T05:26:19.831Z,21.50
2018-10-19T05:28:48.428Z,19.93
2018-10-19T05:31:17.021Z,20.90
2018-10-19T05:33:45.626Z,20.97
2018-10-19T05:36:14.382Z,23.27
2018-10-19T05:38:43.021Z,20.87
2018-10-19T05:41:11.812Z,19.53
2018-10-19T05:43:41.486Z,22.13
2018-10-19T05:46:11.604Z,20.87
2018-10-19T05:48:40.360Z,23.43
2018-10-19T05:51:09.656Z,24.40
2018-10-19T05:53:38.442Z,25.43
2018-10-19T05:56:07.841Z,22.37
2018-10-19T05:58:37.355Z,18.93
2018-10-19T06:01:06.248Z,24.07
2018-10-19T06:03:35.070Z,23.37
2018-10-19T06:06:03.746Z,20.43
2018-10-19T06:08:32.999Z,23.90
2018-10-19T06:11:01.818Z,22.70
2018-10-19T06:13:30.711Z,23.40
2018-10-19T06:15:59.344Z,22.63
2018-10-19T06:18:28.146Z,21.97
2018-10-19T06:20:59.956Z,20.00
2018-10-19T06:23:28.634Z,26.73
2018-10-19T06:25:57.827Z,22.27
2018-10-19T06:28:26.425Z,19.90
2018-10-19T06:30:54.903Z,21.27
2018-10-19T06:33:23.425Z,20.63
2018-10-19T06:35:52.064Z,23.40
2018-10-19T06:38:20.691Z,25.03
2018-10-19T06:40:49.221Z,24.43
2018-10-19T06:43:17.822Z,23.57
2018-10-19T06:45:47.650Z,23.23
2018-10-19T06:48:16.446Z,27.80
2018-10-19T06:50:45.879Z,22.97
2018-10-19T06:53:14.560Z,21.57
2018-10-19T06:55:43.221Z,21.07
2018-10-19T06:58:12.526Z,22.63
2018-10-19T07:00:41.148Z,25.47
2018-10-19T07:03:10.088Z,24.83
2018-10-19T07:05:38.971Z,21.83
2018-10-19T07:08:07.669Z,23.20
2018-10-19T07:10:36.310Z,24.90
2018-10-19T07:13:04.832Z,25.37
2018-10-19T07:15:33.455Z,27.00
2018-10-19T07:18:02.846Z,24.83
2018-10-19T07:20:31.656Z,24.47
2018-10-19T07:23:00.396Z,27.83
2018-10-19T07:25:29.026Z,22.30
2018-10-19T07:27:57.671Z,26.87
2018-10-19T07:30:26.186Z,24.80
2018-10-19T07:32:54.982Z,25.40
2018-10-19T07:35:23.715Z,24.83
2018-10-19T07:37:52.278Z,22.37
2018-10-19T07:40:20.973Z,26.50
2018-10-19T07:42:49.759Z,25.77
2018-10-19T07:45:18.578Z,27.13
2018-10-19T07:47:47.960Z,28.83
2018-10-19T07:50:16.528Z,25.07
2018-10-19T07:52:45.348Z,27.60
2018-10-19T07:55:14.044Z,24.73
2018-10-19T07:57:42.573Z,30.17
2018-10-19T08:00:11.785Z,28.43
2018-10-19T08:02:40.272Z,26.40
2018-10-19T08:05:09.445Z,24.17
2018-10-19T08:07:44.531Z,28.63
2018-10-19T08:10:13.219Z,27.87
2018-10-19T08:12:41.826Z,28.73
2018-10-19T08:15:10.814Z,29.60
2018-10-19T08:17:39.517Z,25.70
2018-10-19T08:20:08.543Z,30.23
2018-10-19T08:22:37.383Z,30.33
2018-10-19T08:25:07.176Z,29.45
2018-10-19T08:27:36.417Z,31.23
2018-10-19T08:30:05.111Z,27.90
2018-10-19T08:32:33.767Z,27.57
2018-10-19T08:35:02.479Z,27.83
2018-10-19T08:37:32.957Z,28.60
2018-10-19T08:40:01.583Z,27.63
2018-10-19T08:42:30.108Z,29.87
2018-10-19T08:44:59.521Z,31.67
2018-10-19T08:47:28.251Z,30.80
2018-10-19T08:49:56.865Z,29.97
2018-10-19T08:52:26.242Z,28.53
2018-10-19T08:54:54.961Z,30.60
2018-10-19T08:57:23.922Z,30.90
2018-10-19T08:59:53.306Z,27.60
2018-10-19T09:02:22.220Z,28.87
2018-10-19T09:04:50.832Z,31.27
2018-10-19T09:07:19.780Z,28.73
2018-10-19T09:09:48.541Z,28.47
2018-10-19T09:12:17.136Z,30.77
2018-10-19T09:14:53.668Z,28.40
2018-10-19T09:17:22.759Z,26.03
2018-10-19T09:19:52.321Z,28.50
2018-10-19T09:22:21.761Z,28.73
2018-10-19T09:24:51.570Z,30.43
2018-10-19T09:27:21.536Z,28.87
2018-10-19T09:29:50.148Z,29.83
2018-10-19T09:32:18.851Z,28.80
2018-10-19T09:34:47.809Z,30.00
2018-10-19T09:37:16.392Z,25.60
2018-10-19T09:39:45.781Z,26.33
2018-10-19T09:42:14.454Z,25.80
2018-10-19T09:44:43.153Z,23.97
2018-10-19T09:47:11.732Z,24.10
2018-10-19T09:49:40.363Z,26.73
2018-10-19T09:52:09.613Z,23.57
2018-10-19T09:54:38.408Z,26.20
2018-10-19T09:57:06.964Z,24.90
2018-10-19T09:59:35.500Z,25.47
2018-10-19T10:02:04.194Z,25.23
2018-10-19T10:04:32.894Z,24.70
2018-10-19T10:07:01.670Z,23.83
2018-10-19T10:09:30.601Z,25.67
2018-10-19T10:11:59.148Z,26.57
2018-10-19T10:14:27.819Z,25.30
2018-10-19T10:16:56.519Z,22.95
2018-10-19T10:19:25.146Z,25.07
2018-10-19T10:21:54.277Z,22.40
2018-10-19T10:24:22.917Z,22.60
2018-10-19T10:26:51.616Z,23.83
2018-10-19T10:29:20.921Z,24.07
2018-10-19T10:31:49.480Z,23.83
2018-10-19T10:34:18.336Z,22.67
2018-10-19T10:36:46.787Z,21.93
2018-10-19T10:39:16.245Z,20.72
2018-10-19T10:41:44.954Z,21.37
2018-10-19T10:44:13.501Z,22.00
2018-10-19T10:46:42.340Z,23.40
2018-10-19T10:49:10.926Z,24.37
2018-10-19T10:51:39.697Z,25.92
2018-10-19T10:54:08.584Z,23.67
2018-10-19T10:56:37.302Z,25.70
2018-10-19T10:59:06.219Z,24.63
2018-10-19T11:01:35.013Z,21.95
2018-10-19T11:04:03.949Z,22.07
2018-10-19T11:06:32.553Z,25.52
2018-10-19T11:09:01.366Z,24.15
2018-10-19T11:11:35.943Z,28.10
2018-10-19T11:14:05.005Z,23.90
2018-10-19T11:16:33.617Z,25.08
2018-10-19T11:19:03.133Z,24.72
2018-10-19T11:21:32.737Z,24.43
2018-10-19T11:24:01.557Z,25.60
2018-10-19T11:26:30.421Z,24.70
2018-10-19T11:28:59.961Z,23.83
2018-10-19T11:31:29.127Z,24.20
2018-10-19T11:33:57.887Z,23.55
2018-10-19T11:36:26.692Z,22.85
2018-10-19T11:38:55.201Z,23.05
2018-10-19T11:41:23.904Z,24.63
2018-10-19T11:43:52.493Z,22.00
2018-10-19T11:46:21.228Z,21.25
2018-10-19T11:48:50.359Z,22.32
2018-10-19T11:51:19.037Z,21.07
2018-10-19T11:53:48.006Z,21.97
2018-10-19T11:56:16.645Z,22.55
2018-10-19T11:58:45.289Z,22.27
2018-10-19T12:01:14.033Z,22.70
2018-10-19T12:03:42.767Z,23.45
2018-10-19T12:06:11.275Z,21.80
2018-10-19T12:08:40.307Z,23.85
2018-10-19T12:11:09.084Z,21.57
2018-10-19T12:13:37.868Z,23.30
2018-10-19T12:16:07.320Z,22.87
2018-10-19T12:18:36.015Z,21.40
2018-10-19T12:21:05.089Z,20.65
2018-10-19T12:23:33.879Z,22.80
2018-10-19T12:26:02.545Z,21.00
2018-10-19T12:28:31.089Z,19.52
2018-10-19T12:30:59.935Z,20.45
2018-10-19T12:33:28.561Z,21.85
2018-10-19T12:35:57.494Z,21.35
2018-10-19T12:38:26.861Z,19.37
2018-10-19T12:40:55.718Z,18.27
2018-10-19T12:43:24.198Z,21.62
2018-10-19T12:46:34.877Z,18.17
2018-10-19T12:49:03.424Z,20.68
2018-10-19T12:51:32.212Z,18.00
2018-10-19T12:54:00.933Z,18.50
2018-10-19T12:56:29.802Z,16.87
2018-10-19T12:58:58.560Z,18.15
2018-10-19T13:01:28.395Z,16.87
2018-10-19T13:03:57.791Z,16.45
2018-10-19T13:06:26.463Z,17.62
2018-10-19T13:08:55.462Z,16.12
2018-10-19T13:11:24.367Z,18.73
2018-10-19T13:13:54.192Z,17.12
2018-10-19T13:16:23.156Z,15.80
2018-10-19T13:18:52.093Z,15.93
2018-10-19T13:21:20.988Z,17.75
2018-10-19T13:23:50.378Z,16.57
2018-10-19T13:26:19.096Z,17.75
2018-10-19T13:28:47.989Z,19.45
2018-10-19T13:31:17.039Z,16.97
2018-10-19T13:33:45.870Z,16.77
2018-10-19T13:36:14.685Z,19.15
2018-10-19T13:38:43.216Z,21.15
2018-10-19T13:41:12.103Z,23.83
2018-10-19T13:43:41.709Z,21.07
2018-10-19T13:46:10.484Z,20.60
2018-10-19T13:48:39.643Z,18.50
2018-10-19T13:51:08.343Z,20.55
2018-10-19T13:53:37.059Z,20.92
2018-10-19T13:56:05.640Z,21.42
2018-10-19T13:58:34.346Z,22.85
2018-10-19T14:01:02.895Z,21.17
2018-10-19T14:03:31.728Z,20.05
2018-10-19T14:06:00.968Z,22.87
2018-10-19T14:08:30.211Z,23.65
2018-10-19T14:10:58.849Z,22.20
2018-10-19T14:13:27.846Z,25.97
2018-10-19T14:15:56.524Z,23.77
2018-10-19T14:18:25.537Z,24.73
2018-10-19T14:20:54.381Z,26.12
2018-10-19T14:23:23.690Z,24.12
2018-10-19T14:25:52.885Z,23.52
2018-10-19T14:28:21.702Z,24.25
2018-10-19T14:30:51.096Z,23.55
2018-10-19T14:33:19.924Z,22.55
2018-10-19T14:35:48.553Z,20.57
2018-10-19T14:38:17.886Z,21.20
2018-10-19T14:40:46.889Z,19.07
2018-10-19T14:43:16.419Z,22.23
2018-10-19T14:45:45.908Z,20.85
2018-10-19T14:48:17.929Z,22.98
2018-10-19T14:50:46.692Z,24.40
2018-10-19T14:53:15.755Z,25.17
2018-10-19T14:55:44.645Z,24.53
2018-10-19T14:58:14.204Z,27.37
2018-10-19T15:00:48.251Z,26.52
2018-10-19T15:03:17.014Z,22.25
2018-10-19T15:05:45.834Z,24.53
2018-10-19T15:08:15.089Z,27.87
2018-10-19T15:10:44.287Z,24.13
2018-10-19T15:13:12.589Z,26.03
2018-10-19T15:15:41.281Z,26.82
2018-10-19T15:18:10.675Z,27.57
2018-10-19T15:20:39.573Z,26.10
2018-10-19T15:23:08.361Z,26.07
2018-10-19T15:25:37.056Z,29.00
2018-10-19T15:28:05.595Z,25.02
2018-10-19T15:30:34.318Z,27.00
2018-10-19T15:33:02.928Z,28.10
2018-10-19T15:35:31.432Z,29.17
2018-10-19T15:38:00.139Z,27.33
2018-10-19T15:40:28.956Z,27.53
2018-10-19T15:42:57.777Z,26.33
2018-10-19T15:45:26.678Z,25.90
2018-10-19T15:47:55.364Z,25.93
2018-10-19T15:50:24.395Z,29.30
2018-10-19T15:52:53.630Z,27.77
2018-10-19T15:55:22.149Z,28.40
2018-10-19T15:57:50.889Z,31.97
2018-10-19T16:00:19.887Z,30.07
2018-10-19T16:02:48.955Z,30.63
2018-10-19T16:05:17.689Z,31.23
2018-10-19T16:07:46.396Z,29.53
2018-10-19T16:10:14.997Z,29.30
2018-10-19T16:12:43.790Z,29.80
2018-10-19T16:15:12.511Z,33.27
2018-10-19T16:17:41.163Z,32.13
2018-10-19T16:20:10.933Z,31.70
2018-10-19T16:22:39.710Z,31.33
2018-10-19T16:25:08.804Z,32.90
2018-10-19T16:27:39.131Z,34.33
2018-10-19T16:30:09.142Z,31.47
2018-10-19T16:32:39.322Z,30.90
2018-10-19T16:35:08.389Z,33.30
2018-10-19T16:37:37.756Z,32.97
2018-10-19T16:40:07.571Z,34.33
2018-10-19T16:42:36.373Z,32.10
2018-10-19T16:45:05.943Z,32.60
2018-10-19T16:47:35.715Z,33.63
2018-10-19T16:50:04.563Z,33.33
2018-10-19T16:52:33.288Z,36.33
2018-10-19T16:55:01.796Z,31.83
2018-10-19T16:57:30.597Z,32.37
2018-10-19T16:59:59.304Z,31.20
2018-10-19T17:02:28.021Z,41.93
2018-10-19T17:04:57.076Z,30.07
2018-10-19T17:07:25.512Z,32.57
2018-10-19T17:09:54.147Z,32.80
2018-10-19T17:12:23.205Z,34.23
2018-10-19T17:14:51.690Z,33.40
2018-10-19T17:17:20.402Z,32.27
2018-10-19T17:19:49.145Z,30.80
2018-10-19T17:42:25.922Z,27.70
2018-10-19T17:44:55.165Z,26.70
2018-10-19T17:47:24.074Z,24.80
2018-10-19T17:49:53.313Z,27.87
2018-10-19T17:52:21.818Z,28.47
2018-10-19T17:54:50.621Z,23.63
2018-10-19T17:57:19.263Z,30.90
2018-10-19T17:59:48.036Z,26.87
2018-10-19T18:02:16.929Z,25.33
2018-10-19T18:04:46.273Z,28.83
2018-10-19T18:07:15.096Z,24.13
2018-10-19T18:09:48.073Z,28.30
2018-10-19T18:12:16.666Z,25.93
2018-10-19T18:14:48.423Z,27.17
2018-10-19T18:17:17.174Z,28.43
2018-10-19T18:19:45.905Z,21.67
2018-10-19T18:22:15.047Z,23.03
2018-10-19T18:24:43.284Z,22.77
2018-10-19T18:27:11.980Z,27.77
2018-10-19T18:29:40.477Z,24.17
2018-10-19T18:32:09.423Z,25.20
2018-10-19T18:34:38.068Z,24.47
2018-10-19T18:37:07.323Z,28.10
2018-10-19T18:39:36.019Z,24.37
2018-10-19T18:42:04.671Z,22.83
2018-10-19T18:44:33.060Z,25.20
2018-10-19T18:47:01.848Z,26.37
2018-10-19T18:49:30.366Z,23.20
2018-10-19T18:51:59.012Z,22.87
2018-10-19T18:54:27.689Z,22.53
2018-10-19T18:56:56.302Z,23.50
2018-10-19T18:59:24.841Z,25.80
2018-10-19T19:01:53.591Z,21.50
2018-10-19T19:04:22.810Z,21.90
2018-10-19T19:06:52.017Z,24.13
2018-10-19T19:09:20.683Z,20.50
2018-10-19T19:11:49.650Z,23.73
2018-10-19T19:14:18.284Z,22.80
2018-10-19T19:16:46.888Z,27.10
2018-10-19T19:19:15.461Z,20.13
2018-10-19T19:21:44.720Z,25.80
2018-10-19T19:25:22.369Z,19.80
2018-10-19T19:27:51.073Z,21.40
2018-10-19T19:30:19.781Z,23.60
2018-10-19T19:32:54.154Z,19.23
2018-10-19T19:35:22.952Z,21.80
2018-10-19T19:37:51.902Z,21.10
2018-10-19T19:40:20.625Z,21.63
2018-10-19T19:42:51.412Z,23.47
2018-10-19T19:45:20.094Z,24.60
2018-10-19T19:47:53.841Z,21.60
2018-10-19T19:50:23.227Z,21.10
2018-10-19T19:52:51.982Z,21.93
2018-10-19T19:55:20.594Z,21.48
2018-10-19T19:57:49.270Z,21.93
2018-10-19T20:00:17.933Z,21.57
2018-10-19T20:02:46.432Z,22.30
2018-10-19T20:05:15.505Z,24.33
2018-10-19T20:07:44.280Z,27.00
2018-10-19T20:10:12.772Z,24.73
2018-10-19T20:12:41.351Z,25.00
2018-10-19T20:15:10.648Z,32.17
2018-10-19T20:17:39.455Z,26.57
2018-10-19T20:20:09.853Z,25.43
2018-10-19T20:22:39.001Z,27.77
2018-10-19T20:25:09.729Z,21.33
2018-10-19T20:27:39.142Z,20.73
2018-10-19T20:30:10.161Z,24.90
2018-10-19T20:32:39.300Z,24.10
2018-10-19T20:35:07.844Z,21.93
2018-10-19T20:37:36.566Z,24.80
2018-10-19T20:40:05.417Z,28.33
2018-10-19T20:42:34.257Z,28.07
2018-10-19T20:45:02.879Z,24.87
2018-10-19T20:47:31.516Z,21.63
2018-10-19T20:50:00.249Z,22.20
2018-10-19T20:52:29.686Z,22.47
2018-10-19T20:54:58.329Z,21.43
2018-10-19T20:57:26.841Z,20.67
2018-10-19T20:59:55.360Z,24.03
2018-10-19T21:02:24.109Z,21.63
2018-10-19T21:04:52.562Z,24.90
2018-10-19T21:07:21.140Z,19.13
2018-10-19T21:09:49.609Z,24.97
2018-10-19T21:12:18.266Z,22.10
2018-10-19T21:14:46.849Z,21.47
2018-10-19T21:17:16.033Z,26.87
2018-10-19T21:19:44.848Z,22.03
2018-10-19T21:22:13.401Z,21.90
2018-10-19T21:24:41.969Z,19.87
2018-10-19T21:27:10.744Z,21.97
2018-10-19T21:29:39.206Z,20.50
2018-10-19T21:32:08.102Z,21.23
2018-10-19T21:34:37.239Z,19.90
2018-10-19T21:37:05.861Z,21.73
2018-10-19T21:39:34.381Z,19.40
2018-10-19T21:42:02.892Z,20.20
2018-10-19T21:44:31.464Z,20.40
2018-10-19T21:47:00.336Z,20.57
2018-10-19T21:49:29.012Z,17.40
2018-10-19T21:51:58.103Z,19.13
2018-10-19T21:54:26.718Z,20.17
2018-10-19T21:56:55.271Z,17.43
2018-10-19T21:59:23.773Z,22.37
2018-10-19T22:01:52.309Z,15.60
2018-10-19T22:04:20.762Z,17.37
2018-10-19T22:06:49.339Z,17.67
2018-10-19T22:09:17.896Z,17.30
2018-10-19T22:11:47.124Z,18.27
2018-10-19T22:14:15.912Z,13.83
2018-10-19T22:16:44.678Z,16.87
2018-10-19T22:19:13.281Z,18.40
2018-10-19T22:21:41.949Z,20.20
2018-10-19T22:24:11.125Z,18.03
2018-10-19T22:26:40.296Z,20.63
2018-10-19T22:29:09.127Z,17.97
2018-10-19T22:31:37.692Z,16.23
2018-10-19T22:34:06.333Z,17.20
2018-10-19T22:36:36.107Z,18.70
2018-10-19T22:39:05.527Z,19.67
2018-10-19T22:41:34.062Z,18.03
2018-10-19T22:44:03.801Z,14.37
2018-10-19T22:46:32.418Z,16.37
2018-10-19T22:49:01.291Z,19.07
2018-10-19T22:51:29.926Z,16.20
2018-10-19T22:53:58.448Z,15.80
2018-10-19T22:56:26.903Z,18.50
2018-10-19T22:58:55.548Z,18.23
2018-10-19T23:01:24.708Z,17.30
2018-10-19T23:03:54.055Z,18.60
2018-10-19T23:06:22.644Z,21.60
2018-10-19T23:08:51.328Z,18.87
2018-10-19T23:11:19.835Z,19.07
2018-10-19T23:13:48.935Z,18.27
2018-10-19T23:16:17.604Z,19.27
2018-10-19T23:18:46.334Z,19.17
2018-10-19T23:21:14.931Z,20.90
2018-10-19T23:23:43.448Z,17.27
2018-10-19T23:26:11.937Z,18.20
2018-10-19T23:28:40.712Z,18.97
2018-10-19T23:31:09.491Z,21.70
2018-10-19T23:33:38.385Z,22.40
2018-10-19T23:36:06.993Z,19.43
2018-10-19T23:38:35.961Z,17.30
2018-10-19T23:41:04.477Z,21.63
2018-10-19T23:43:33.782Z,17.60
2018-10-19T23:46:02.268Z,18.17
2018-10-19T23:48:30.854Z,20.73
2018-10-19T23:50:59.371Z,18.17
2018-10-19T23:53:27.807Z,19.47
